sensor_id;sensor_type;location;lat;lon;timestamp;temperature;humidity
59067;DHT22;44854;50.838;4.438;2023-07-13T04:01:50;17.00;99.90
59067;DHT22;44854;50.838;4.438;2023-07-13T04:04:16;17.00;99.90
59067;DHT22;44854;50.838;4.438;2023-07-13T04:06:41;17.00;99.90
59067;DHT22;44854;50.838;4.438;2023-07-13T04:09:07;17.10;99.90
59067;DHT22;44854;50.838;4.438;2023-07-13T04:11:34;17.00;99.90
59067;DHT22;44854;50.838;4.438;2023-07-13T04:14:01;16.90;99.90
59067;DHT22;44854;50.838;4.438;2023-07-13T04:16:27;17.00;99.90
59067;DHT22;44854;50.838;4.438;2023-07-13T04:18:55;17.20;99.90
59067;DHT22;44854;50.838;4.438;2023-07-13T04:21:25;17.20;99.90
59067;DHT22;44854;50.838;4.438;2023-07-13T04:23:50;17.10;99.90
59067;DHT22;44854;50.838;4.438;2023-07-13T04:26:16;17.10;99.90
59067;DHT22;44854;50.838;4.438;2023-07-13T04:28:41;17.10;99.90
59067;DHT22;44854;50.838;4.438;2023-07-13T04:31:07;17.20;99.90
59067;DHT22;44854;50.838;4.438;2023-07-13T04:33:33;17.30;99.90
59067;DHT22;44854;50.838;4.438;2023-07-13T04:35:59;17.30;99.90
59067;DHT22;44854;50.838;4.438;2023-07-13T04:38:26;17.30;99.90
59067;DHT22;44854;50.838;4.438;2023-07-13T04:40:54;17.20;99.90
59067;DHT22;44854;50.838;4.438;2023-07-13T04:43:20;17.20;99.90
59067;DHT22;44854;50.838;4.438;2023-07-13T04:45:45;17.30;99.90
59067;DHT22;44854;50.838;4.438;2023-07-13T04:48:11;17.50;99.90
59067;DHT22;44854;50.838;4.438;2023-07-13T04:50:37;17.30;99.90
59067;DHT22;44854;50.838;4.438;2023-07-13T04:53:03;17.10;99.90
59067;DHT22;44854;50.838;4.438;2023-07-13T04:55:29;17.10;99.90
59067;DHT22;44854;50.838;4.438;2023-07-13T04:57:56;17.10;99.90
59067;DHT22;44854;50.838;4.438;2023-07-13T05:00:21;17.20;99.90
59067;DHT22;44854;50.838;4.438;2023-07-13T05:02:47;17.20;99.90
59067;DHT22;44854;50.838;4.438;2023-07-13T05:05:12;17.20;99.90
59067;DHT22;44854;50.838;4.438;2023-07-13T05:07:38;17.20;99.90
59067;DHT22;44854;50.838;4.438;2023-07-13T05:10:04;17.20;99.90
59067;DHT22;44854;50.838;4.438;2023-07-13T05:12:30;17.20;99.90
59067;DHT22;44854;50.838;4.438;2023-07-13T05:14:56;17.30;99.90
59067;DHT22;44854;50.838;4.438;2023-07-13T05:17:21;17.40;99.90
59067;DHT22;44854;50.838;4.438;2023-07-13T05:19:47;17.50;99.90
59067;DHT22;44854;50.838;4.438;2023-07-13T05:22:12;17.40;99.90
59067;DHT22;44854;50.838;4.438;2023-07-13T05:24:38;17.40;99.90
59067;DHT22;44854;50.838;4.438;2023-07-13T05:27:03;17.50;99.90
59067;DHT22;44854;50.838;4.438;2023-07-13T05:29:29;17.50;99.90
59067;DHT22;44854;50.838;4.438;2023-07-13T05:31:55;17.70;99.90
59067;DHT22;44854;50.838;4.438;2023-07-13T05:34:20;17.70;99.90
59067;DHT22;44854;50.838;4.438;2023-07-13T05:36:46;17.70;99.90
59067;DHT22;44854;50.838;4.438;2023-07-13T05:39:11;17.80;99.90
59067;DHT22;44854;50.838;4.438;2023-07-13T05:41:37;17.90;99.90
59067;DHT22;44854;50.838;4.438;2023-07-13T05:44:02;17.80;99.90
59067;DHT22;44854;50.838;4.438;2023-07-13T05:46:28;17.80;99.90
59067;DHT22;44854;50.838;4.438;2023-07-13T05:48:54;17.70;99.90
59067;DHT22;44854;50.838;4.438;2023-07-13T05:51:19;17.80;99.90
59067;DHT22;44854;50.838;4.438;2023-07-13T05:53:45;17.70;99.90
59067;DHT22;44854;50.838;4.438;2023-07-13T05:56:10;17.50;99.90
59067;DHT22;44854;50.838;4.438;2023-07-13T05:58:36;17.70;99.90
59067;DHT22;44854;50.838;4.438;2023-07-13T06:01:04;17.80;99.90
59067;DHT22;44854;50.838;4.438;2023-07-13T06:03:30;17.80;99.90
59067;DHT22;44854;50.838;4.438;2023-07-13T06:05:55;17.90;99.90
59067;DHT22;44854;50.838;4.438;2023-07-13T06:08:21;17.90;99.90
59067;DHT22;44854;50.838;4.438;2023-07-13T06:10:46;17.90;99.90
59067;DHT22;44854;50.838;4.438;2023-07-13T06:13:12;18.10;99.90
59067;DHT22;44854;50.838;4.438;2023-07-13T06:15:39;18.30;99.90
59067;DHT22;44854;50.838;4.438;2023-07-13T06:18:04;18.30;99.90
59067;DHT22;44854;50.838;4.438;2023-07-13T06:20:30;18.40;99.90
59067;DHT22;44854;50.838;4.438;2023-07-13T06:22:55;18.30;99.90
59067;DHT22;44854;50.838;4.438;2023-07-13T06:25:21;18.30;99.90
59067;DHT22;44854;50.838;4.438;2023-07-13T06:27:46;18.40;99.90
59067;DHT22;44854;50.838;4.438;2023-07-13T06:30:12;18.50;99.90
59067;DHT22;44854;50.838;4.438;2023-07-13T06:32:38;18.60;99.90
59067;DHT22;44854;50.838;4.438;2023-07-13T06:35:03;18.40;99.90
59067;DHT22;44854;50.838;4.438;2023-07-13T06:37:29;18.40;99.90
59067;DHT22;44854;50.838;4.438;2023-07-13T06:39:55;18.50;99.90
59067;DHT22;44854;50.838;4.438;2023-07-13T06:42:20;18.30;99.90
59067;DHT22;44854;50.838;4.438;2023-07-13T06:44:46;18.20;99.90
59067;DHT22;44854;50.838;4.438;2023-07-13T06:47:12;18.30;99.90
59067;DHT22;44854;50.838;4.438;2023-07-13T06:49:37;18.40;99.90
59067;DHT22;44854;50.838;4.438;2023-07-13T06:52:03;18.40;99.90
59067;DHT22;44854;50.838;4.438;2023-07-13T06:54:29;18.30;99.90
59067;DHT22;44854;50.838;4.438;2023-07-13T06:56:54;18.40;99.90
59067;DHT22;44854;50.838;4.438;2023-07-13T06:59:20;18.60;99.90
59067;DHT22;44854;50.838;4.438;2023-07-13T07:01:46;18.60;99.90
59067;DHT22;44854;50.838;4.438;2023-07-13T07:04:12;18.60;99.90
59067;DHT22;44854;50.838;4.438;2023-07-13T07:06:39;18.80;99.90
59067;DHT22;44854;50.838;4.438;2023-07-13T07:09:05;18.90;99.90
59067;DHT22;44854;50.838;4.438;2023-07-13T07:11:30;19.00;99.90
59067;DHT22;44854;50.838;4.438;2023-07-13T07:13:56;19.30;99.90
59067;DHT22;44854;50.838;4.438;2023-07-13T07:16:21;19.30;99.90
59067;DHT22;44854;50.838;4.438;2023-07-13T07:18:47;19.30;99.90
59067;DHT22;44854;50.838;4.438;2023-07-13T07:21:13;19.30;99.90
59067;DHT22;44854;50.838;4.438;2023-07-13T07:23:38;19.50;99.90
59067;DHT22;44854;50.838;4.438;2023-07-13T07:26:04;19.60;99.90
59067;DHT22;44854;50.838;4.438;2023-07-13T07:28:30;19.60;99.90
59067;DHT22;44854;50.838;4.438;2023-07-13T07:30:56;19.50;99.90
59067;DHT22;44854;50.838;4.438;2023-07-13T07:33:23;19.60;99.90
59067;DHT22;44854;50.838;4.438;2023-07-13T07:35:48;19.50;99.90
59067;DHT22;44854;50.838;4.438;2023-07-13T07:38:14;19.60;99.90
59067;DHT22;44854;50.838;4.438;2023-07-13T07:40:42;19.60;99.90
59067;DHT22;44854;50.838;4.438;2023-07-13T07:43:08;19.50;99.90
59067;DHT22;44854;50.838;4.438;2023-07-13T07:45:34;19.70;99.90
59067;DHT22;44854;50.838;4.438;2023-07-13T07:48:00;19.50;99.90
59067;DHT22;44854;50.838;4.438;2023-07-13T07:50:26;19.40;99.90
59067;DHT22;44854;50.838;4.438;2023-07-13T07:52:52;19.50;99.90
59067;DHT22;44854;50.838;4.438;2023-07-13T07:55:17;19.60;99.90
59067;DHT22;44854;50.838;4.438;2023-07-13T07:57:43;19.60;99.90
59067;DHT22;44854;50.838;4.438;2023-07-13T08:00:08;19.60;99.90
59067;DHT22;44854;50.838;4.438;2023-07-13T08:02:34;19.60;99.90
59067;DHT22;44854;50.838;4.438;2023-07-13T08:04:59;19.90;99.90
59067;DHT22;44854;50.838;4.438;2023-07-13T08:07:25;19.90;99.90
59067;DHT22;44854;50.838;4.438;2023-07-13T08:09:54;20.00;99.90
59067;DHT22;44854;50.838;4.438;2023-07-13T08:12:20;20.20;99.90
59067;DHT22;44854;50.838;4.438;2023-07-13T08:14:45;20.20;99.90
59067;DHT22;44854;50.838;4.438;2023-07-13T08:17:14;20.10;99.90
59067;DHT22;44854;50.838;4.438;2023-07-13T08:19:40;19.80;99.90
59067;DHT22;44854;50.838;4.438;2023-07-13T08:22:05;19.90;99.90
59067;DHT22;44854;50.838;4.438;2023-07-13T08:24:31;20.10;99.90
59067;DHT22;44854;50.838;4.438;2023-07-13T08:26:56;20.40;99.90
59067;DHT22;44854;50.838;4.438;2023-07-13T08:29:22;20.50;99.90
59067;DHT22;44854;50.838;4.438;2023-07-13T08:31:48;20.50;99.90
59067;DHT22;44854;50.838;4.438;2023-07-13T08:34:14;20.50;99.90
59067;DHT22;44854;50.838;4.438;2023-07-13T08:36:40;20.20;99.90
59067;DHT22;44854;50.838;4.438;2023-07-13T08:39:06;20.40;99.90
59067;DHT22;44854;50.838;4.438;2023-07-13T08:41:31;20.60;99.90
59067;DHT22;44854;50.838;4.438;2023-07-13T08:43:58;20.60;99.90
59067;DHT22;44854;50.838;4.438;2023-07-13T08:48:52;20.60;99.90
59067;DHT22;44854;50.838;4.438;2023-07-13T08:53:49;20.80;99.90
59067;DHT22;44854;50.838;4.438;2023-07-13T08:56:17;21.00;99.90
59067;DHT22;44854;50.838;4.438;2023-07-13T08:58:44;21.00;99.90
59067;DHT22;44854;50.838;4.438;2023-07-13T09:03:40;21.30;99.90
59067;DHT22;44854;50.838;4.438;2023-07-13T09:06:07;21.50;99.90
59067;DHT22;44854;50.838;4.438;2023-07-13T09:08:38;21.30;99.90
59067;DHT22;44854;50.838;4.438;2023-07-13T09:11:16;21.10;99.90
59067;DHT22;44854;50.838;4.438;2023-07-13T09:13:50;21.20;99.90
59067;DHT22;44854;50.838;4.438;2023-07-13T09:16:19;21.20;99.90
59067;DHT22;44854;50.838;4.438;2023-07-13T09:18:50;21.30;99.90
59067;DHT22;44854;50.838;4.438;2023-07-13T09:21:18;21.40;99.90
59067;DHT22;44854;50.838;4.438;2023-07-13T09:23:46;21.40;99.90
59067;DHT22;44854;50.838;4.438;2023-07-13T09:26:13;21.60;99.90
59067;DHT22;44854;50.838;4.438;2023-07-13T09:28:42;21.70;99.90
59067;DHT22;44854;50.838;4.438;2023-07-13T09:31:13;21.60;99.90
59067;DHT22;44854;50.838;4.438;2023-07-13T09:33:39;21.70;99.90
59067;DHT22;44854;50.838;4.438;2023-07-13T09:36:26;21.40;99.90
59067;DHT22;44854;50.838;4.438;2023-07-13T09:38:54;21.40;99.90
59067;DHT22;44854;50.838;4.438;2023-07-13T09:41:31;21.40;99.90
59067;DHT22;44854;50.838;4.438;2023-07-13T09:46:36;21.50;99.90
59067;DHT22;44854;50.838;4.438;2023-07-13T09:49:01;21.80;99.90
59067;DHT22;44854;50.838;4.438;2023-07-13T09:51:27;21.90;99.90
59067;DHT22;44854;50.838;4.438;2023-07-13T09:53:53;21.70;99.90
59067;DHT22;44854;50.838;4.438;2023-07-13T09:56:23;21.90;99.90
59067;DHT22;44854;50.838;4.438;2023-07-13T09:58:49;22.10;99.90
59067;DHT22;44854;50.838;4.438;2023-07-13T10:01:14;22.10;99.90
59067;DHT22;44854;50.838;4.438;2023-07-13T10:03:51;22.00;99.90
59067;DHT22;44854;50.838;4.438;2023-07-13T10:06:18;22.00;99.90
59067;DHT22;44854;50.838;4.438;2023-07-13T10:08:44;22.00;99.90
59067;DHT22;44854;50.838;4.438;2023-07-13T10:11:11;22.20;99.90
59067;DHT22;44854;50.838;4.438;2023-07-13T10:13:42;22.30;99.90
59067;DHT22;44854;50.838;4.438;2023-07-13T10:16:07;22.40;99.90
59067;DHT22;44854;50.838;4.438;2023-07-13T10:18:44;22.60;99.90
59067;DHT22;44854;50.838;4.438;2023-07-13T10:21:12;22.50;99.90
59067;DHT22;44854;50.838;4.438;2023-07-13T10:23:39;22.30;99.90
59067;DHT22;44854;50.838;4.438;2023-07-13T10:26:05;22.00;99.90
59067;DHT22;44854;50.838;4.438;2023-07-13T10:28:32;22.10;99.90
59067;DHT22;44854;50.838;4.438;2023-07-13T10:31:00;22.20;99.90
59067;DHT22;44854;50.838;4.438;2023-07-13T10:33:26;22.30;99.90
59067;DHT22;44854;50.838;4.438;2023-07-13T10:36:03;22.40;99.90
59067;DHT22;44854;50.838;4.438;2023-07-13T10:38:31;22.70;99.90
59067;DHT22;44854;50.838;4.438;2023-07-13T10:40:58;22.70;99.90
59067;DHT22;44854;50.838;4.438;2023-07-13T10:43:28;23.00;99.90
59067;DHT22;44854;50.838;4.438;2023-07-13T10:45:56;22.90;99.90
59067;DHT22;44854;50.838;4.438;2023-07-13T10:48:21;23.00;99.90
59067;DHT22;44854;50.838;4.438;2023-07-13T10:50:49;23.20;99.90
59067;DHT22;44854;50.838;4.438;2023-07-13T10:53:19;23.00;99.90
59067;DHT22;44854;50.838;4.438;2023-07-13T10:58:12;23.00;99.90
59067;DHT22;44854;50.838;4.438;2023-07-13T11:03:27;22.90;99.90
59067;DHT22;44854;50.838;4.438;2023-07-13T11:06:04;23.20;99.90
59067;DHT22;44854;50.838;4.438;2023-07-13T11:10:56;23.60;99.90
59067;DHT22;44854;50.838;4.438;2023-07-13T11:18:46;22.90;99.90
59067;DHT22;44854;50.838;4.438;2023-07-13T11:21:14;23.00;99.90
59067;DHT22;44854;50.838;4.438;2023-07-13T11:23:43;23.10;99.90
59067;DHT22;44854;50.838;4.438;2023-07-13T11:28:54;23.70;99.90
59067;DHT22;44854;50.838;4.438;2023-07-13T11:31:19;23.90;99.90
59067;DHT22;44854;50.838;4.438;2023-07-13T11:33:51;23.70;99.90
59067;DHT22;44854;50.838;4.438;2023-07-13T11:36:18;24.00;99.90
59067;DHT22;44854;50.838;4.438;2023-07-13T11:39:04;24.30;99.90
59067;DHT22;44854;50.838;4.438;2023-07-13T11:41:35;24.20;99.90
59067;DHT22;44854;50.838;4.438;2023-07-13T11:44:13;24.10;99.90
59067;DHT22;44854;50.838;4.438;2023-07-13T11:46:43;23.90;99.90
59067;DHT22;44854;50.838;4.438;2023-07-13T11:49:11;23.70;99.90
59067;DHT22;44854;50.838;4.438;2023-07-13T11:51:39;23.30;99.90
59067;DHT22;44854;50.838;4.438;2023-07-13T11:54:05;23.40;99.90
59067;DHT22;44854;50.838;4.438;2023-07-13T11:56:32;23.40;99.90
59067;DHT22;44854;50.838;4.438;2023-07-13T11:59:07;23.50;99.90
59067;DHT22;44854;50.838;4.438;2023-07-13T12:01:33;23.50;99.90
59067;DHT22;44854;50.838;4.438;2023-07-13T12:04:02;23.30;99.90
59067;DHT22;44854;50.838;4.438;2023-07-13T12:06:29;23.00;99.90
59067;DHT22;44854;50.838;4.438;2023-07-13T12:08:59;22.90;99.90
59067;DHT22;44854;50.838;4.438;2023-07-13T12:11:25;22.60;99.90
59067;DHT22;44854;50.838;4.438;2023-07-13T12:13:50;22.80;99.90
59067;DHT22;44854;50.838;4.438;2023-07-13T12:16:20;22.70;99.90
59067;DHT22;44854;50.838;4.438;2023-07-13T12:18:47;22.90;99.90
59067;DHT22;44854;50.838;4.438;2023-07-13T12:21:16;22.90;99.90
59067;DHT22;44854;50.838;4.438;2023-07-13T12:23:43;22.80;99.90
59067;DHT22;44854;50.838;4.438;2023-07-13T12:26:09;22.70;99.90
59067;DHT22;44854;50.838;4.438;2023-07-13T12:28:38;22.50;99.90
59067;DHT22;44854;50.838;4.438;2023-07-13T12:31:06;22.50;99.90
59067;DHT22;44854;50.838;4.438;2023-07-13T12:33:32;22.60;99.90
59067;DHT22;44854;50.838;4.438;2023-07-13T12:36:00;22.90;99.90
59067;DHT22;44854;50.838;4.438;2023-07-13T12:38:27;23.00;99.90
59067;DHT22;44854;50.838;4.438;2023-07-13T12:40:52;22.30;99.90
59067;DHT22;44854;50.838;4.438;2023-07-13T12:43:19;21.40;99.90
59067;DHT22;44854;50.838;4.438;2023-07-13T12:45:59;21.20;99.90
59067;DHT22;44854;50.838;4.438;2023-07-13T12:48:25;21.20;99.90
59067;DHT22;44854;50.838;4.438;2023-07-13T12:50:51;21.10;99.90
59067;DHT22;44854;50.838;4.438;2023-07-13T12:53:28;21.00;99.90
59067;DHT22;44854;50.838;4.438;2023-07-13T12:55:56;20.90;99.90
59067;DHT22;44854;50.838;4.438;2023-07-13T12:58:39;20.70;99.90
59067;DHT22;44854;50.838;4.438;2023-07-13T13:01:07;20.80;99.90
59067;DHT22;44854;50.838;4.438;2023-07-13T13:06:02;20.80;99.90
59067;DHT22;44854;50.838;4.438;2023-07-13T13:08:29;20.80;99.90
59067;DHT22;44854;50.838;4.438;2023-07-13T13:10:54;20.70;99.90
59067;DHT22;44854;50.838;4.438;2023-07-13T13:13:20;20.90;99.90
59067;DHT22;44854;50.838;4.438;2023-07-13T13:15:45;21.00;99.90
59067;DHT22;44854;50.838;4.438;2023-07-13T13:18:17;21.30;99.90
59067;DHT22;44854;50.838;4.438;2023-07-13T13:20:43;21.70;99.90
59067;DHT22;44854;50.838;4.438;2023-07-13T13:23:16;21.70;99.90
59067;DHT22;44854;50.838;4.438;2023-07-13T13:25:43;21.70;99.90
59067;DHT22;44854;50.838;4.438;2023-07-13T13:28:17;21.80;99.90
59067;DHT22;44854;50.838;4.438;2023-07-13T13:30:43;21.90;99.90
59067;DHT22;44854;50.838;4.438;2023-07-13T13:33:13;22.20;99.90
59067;DHT22;44854;50.838;4.438;2023-07-13T13:35:40;22.30;99.90
59067;DHT22;44854;50.838;4.438;2023-07-13T13:38:15;22.50;99.90
59067;DHT22;44854;50.838;4.438;2023-07-13T13:40:42;22.60;99.90
59067;DHT22;44854;50.838;4.438;2023-07-13T13:43:13;22.80;99.90
59067;DHT22;44854;50.838;4.438;2023-07-13T13:45:40;23.00;99.90
59067;DHT22;44854;50.838;4.438;2023-07-13T13:48:05;23.10;99.90
59067;DHT22;44854;50.838;4.438;2023-07-13T13:50:31;23.20;99.90
59067;DHT22;44854;50.838;4.438;2023-07-13T13:52:56;23.20;99.90
59067;DHT22;44854;50.838;4.438;2023-07-13T13:55:22;23.60;99.90
59067;DHT22;44854;50.838;4.438;2023-07-13T13:57:49;23.90;99.90
59067;DHT22;44854;50.838;4.438;2023-07-13T14:00:15;24.10;99.90
59067;DHT22;44854;50.838;4.438;2023-07-13T14:02:45;24.30;99.90
59067;DHT22;44854;50.838;4.438;2023-07-13T14:05:18;24.30;99.90
59067;DHT22;44854;50.838;4.438;2023-07-13T14:07:45;24.10;99.90
59067;DHT22;44854;50.838;4.438;2023-07-13T14:10:12;24.00;99.90
59067;DHT22;44854;50.838;4.438;2023-07-13T14:12:40;23.80;99.90
59067;DHT22;44854;50.838;4.438;2023-07-13T14:15:06;23.90;99.90
59067;DHT22;44854;50.838;4.438;2023-07-13T14:17:35;23.70;99.90
59067;DHT22;44854;50.838;4.438;2023-07-13T14:20:00;23.80;99.90
59067;DHT22;44854;50.838;4.438;2023-07-13T14:22:26;23.60;99.90
59067;DHT22;44854;50.838;4.438;2023-07-13T14:24:55;23.70;99.90
59067;DHT22;44854;50.838;4.438;2023-07-13T14:27:22;23.90;99.90
59067;DHT22;44854;50.838;4.438;2023-07-13T14:29:48;23.70;99.90
59067;DHT22;44854;50.838;4.438;2023-07-13T14:32:13;23.50;99.90
59067;DHT22;44854;50.838;4.438;2023-07-13T14:34:39;23.40;99.90
59067;DHT22;44854;50.838;4.438;2023-07-13T14:37:05;23.40;99.90
59067;DHT22;44854;50.838;4.438;2023-07-13T14:39:31;23.50;99.90
59067;DHT22;44854;50.838;4.438;2023-07-13T14:41:57;23.20;99.90
59067;DHT22;44854;50.838;4.438;2023-07-13T14:44:24;23.20;99.90
59067;DHT22;44854;50.838;4.438;2023-07-13T14:46:50;23.30;99.90
59067;DHT22;44854;50.838;4.438;2023-07-13T14:49:21;23.40;99.90
59067;DHT22;44854;50.838;4.438;2023-07-13T14:51:49;23.70;99.90
59067;DHT22;44854;50.838;4.438;2023-07-13T14:54:14;23.80;99.90
59067;DHT22;44854;50.838;4.438;2023-07-13T14:56:40;23.90;99.90
59067;DHT22;44854;50.838;4.438;2023-07-13T14:59:05;24.00;99.90
59067;DHT22;44854;50.838;4.438;2023-07-13T15:01:33;24.10;99.90
59067;DHT22;44854;50.838;4.438;2023-07-13T15:03:59;23.90;99.90
59067;DHT22;44854;50.838;4.438;2023-07-13T15:06:25;23.70;99.90
59067;DHT22;44854;50.838;4.438;2023-07-13T15:08:50;23.70;99.90
59067;DHT22;44854;50.838;4.438;2023-07-13T15:11:16;23.80;99.90
59067;DHT22;44854;50.838;4.438;2023-07-13T15:13:42;23.80;99.90
59067;DHT22;44854;50.838;4.438;2023-07-13T15:16:16;24.10;99.90
59067;DHT22;44854;50.838;4.438;2023-07-13T15:18:43;23.90;99.90
59067;DHT22;44854;50.838;4.438;2023-07-13T15:21:10;24.10;99.90
59067;DHT22;44854;50.838;4.438;2023-07-13T15:23:39;24.10;99.90
59067;DHT22;44854;50.838;4.438;2023-07-13T15:26:04;24.00;99.90
59067;DHT22;44854;50.838;4.438;2023-07-13T15:28:32;24.30;99.90
59067;DHT22;44854;50.838;4.438;2023-07-13T15:30:57;24.00;99.90
59067;DHT22;44854;50.838;4.438;2023-07-13T15:33:25;24.20;99.90
59067;DHT22;44854;50.838;4.438;2023-07-13T15:35:51;23.90;99.90
59067;DHT22;44854;50.838;4.438;2023-07-13T15:38:20;23.60;99.90
59067;DHT22;44854;50.838;4.438;2023-07-13T15:40:46;23.50;99.90
59067;DHT22;44854;50.838;4.438;2023-07-13T15:43:12;23.80;99.90
59067;DHT22;44854;50.838;4.438;2023-07-13T15:45:38;23.70;99.90
59067;DHT22;44854;50.838;4.438;2023-07-13T15:48:15;23.90;99.90
59067;DHT22;44854;50.838;4.438;2023-07-13T15:50:44;24.00;99.90
59067;DHT22;44854;50.838;4.438;2023-07-13T15:53:10;24.00;99.90
59067;DHT22;44854;50.838;4.438;2023-07-13T15:55:37;24.10;99.90
59067;DHT22;44854;50.838;4.438;2023-07-13T15:58:03;24.00;99.90
59067;DHT22;44854;50.838;4.438;2023-07-13T16:00:28;24.00;99.90
59067;DHT22;44854;50.838;4.438;2023-07-13T16:02:54;24.20;99.90
59067;DHT22;44854;50.838;4.438;2023-07-13T16:05:20;24.10;99.90
59067;DHT22;44854;50.838;4.438;2023-07-13T16:07:48;24.30;99.90
59067;DHT22;44854;50.838;4.438;2023-07-13T16:10:19;24.50;99.90
59067;DHT22;44854;50.838;4.438;2023-07-13T16:12:45;24.40;99.90
59067;DHT22;44854;50.838;4.438;2023-07-13T16:15:12;24.60;99.90
59067;DHT22;44854;50.838;4.438;2023-07-13T16:17:38;24.50;99.90
59067;DHT22;44854;50.838;4.438;2023-07-13T16:20:06;24.60;99.90
59067;DHT22;44854;50.838;4.438;2023-07-13T16:22:37;24.50;99.90
59067;DHT22;44854;50.838;4.438;2023-07-13T16:25:12;24.30;99.90
59067;DHT22;44854;50.838;4.438;2023-07-13T16:27:38;24.50;99.80
59067;DHT22;44854;50.838;4.438;2023-07-13T16:30:36;24.60;99.90
59067;DHT22;44854;50.838;4.438;2023-07-13T16:32:58;24.40;99.90
59067;DHT22;44854;50.838;4.438;2023-07-13T16:35:30;24.60;99.90
59067;DHT22;44854;50.838;4.438;2023-07-13T16:38:00;24.70;99.90
59067;DHT22;44854;50.838;4.438;2023-07-13T16:40:27;24.90;99.90
59067;DHT22;44854;50.838;4.438;2023-07-13T16:42:54;25.00;99.90
59067;DHT22;44854;50.838;4.438;2023-07-13T16:45:20;24.80;99.50
59067;DHT22;44854;50.838;4.438;2023-07-13T16:47:52;24.90;99.80
59067;DHT22;44854;50.838;4.438;2023-07-13T16:50:19;24.80;99.90
59067;DHT22;44854;50.838;4.438;2023-07-13T16:52:45;24.80;99.70
59067;DHT22;44854;50.838;4.438;2023-07-13T16:55:12;24.80;98.60
59067;DHT22;44854;50.838;4.438;2023-07-13T16:57:44;24.80;98.50
59067;DHT22;44854;50.838;4.438;2023-07-13T17:02:42;24.50;97.40
59067;DHT22;44854;50.838;4.438;2023-07-13T17:05:09;24.50;97.40
59067;DHT22;44854;50.838;4.438;2023-07-13T17:07:35;24.70;97.20
59067;DHT22;44854;50.838;4.438;2023-07-13T17:10:04;24.60;96.90
59067;DHT22;44854;50.838;4.438;2023-07-13T17:12:30;24.50;96.70
59067;DHT22;44854;50.838;4.438;2023-07-13T17:14:56;24.70;96.90
59067;DHT22;44854;50.838;4.438;2023-07-13T17:17:29;24.70;96.80
59067;DHT22;44854;50.838;4.438;2023-07-13T17:19:57;24.70;97.50
59067;DHT22;44854;50.838;4.438;2023-07-13T17:22:24;24.90;96.80
59067;DHT22;44854;50.838;4.438;2023-07-13T17:24:53;24.80;96.90
59067;DHT22;44854;50.838;4.438;2023-07-13T17:27:19;24.80;96.70
59067;DHT22;44854;50.838;4.438;2023-07-13T17:29:45;24.70;96.20
59067;DHT22;44854;50.838;4.438;2023-07-13T17:32:16;24.70;96.50
59067;DHT22;44854;50.838;4.438;2023-07-13T17:34:43;24.80;96.70
59067;DHT22;44854;50.838;4.438;2023-07-13T17:37:14;25.00;96.30
59067;DHT22;44854;50.838;4.438;2023-07-13T17:39:41;25.30;96.10
59067;DHT22;44854;50.838;4.438;2023-07-13T17:42:06;25.40;95.50
59067;DHT22;44854;50.838;4.438;2023-07-13T17:44:34;25.40;95.50
59067;DHT22;44854;50.838;4.438;2023-07-13T17:47:00;25.70;95.60
59067;DHT22;44854;50.838;4.438;2023-07-13T17:49:30;25.80;95.30
59067;DHT22;44854;50.838;4.438;2023-07-13T17:52:00;26.40;94.90
59067;DHT22;44854;50.838;4.438;2023-07-13T17:54:31;26.70;94.50
59067;DHT22;44854;50.838;4.438;2023-07-13T17:56:57;26.70;94.80
59067;DHT22;44854;50.838;4.438;2023-07-13T17:59:23;26.60;94.20
59067;DHT22;44854;50.838;4.438;2023-07-13T18:01:49;26.80;94.20
59067;DHT22;44854;50.838;4.438;2023-07-13T18:04:15;26.70;92.90
59067;DHT22;44854;50.838;4.438;2023-07-13T18:06:44;26.30;92.50
59067;DHT22;44854;50.838;4.438;2023-07-13T18:09:19;26.00;93.20
59067;DHT22;44854;50.838;4.438;2023-07-13T18:11:46;26.10;93.60
59067;DHT22;44854;50.838;4.438;2023-07-13T18:14:12;26.10;93.40
59067;DHT22;44854;50.838;4.438;2023-07-13T18:16:38;25.90;93.70
59067;DHT22;44854;50.838;4.438;2023-07-13T18:19:04;25.70;93.40
59067;DHT22;44854;50.838;4.438;2023-07-13T18:21:31;25.10;93.80
59067;DHT22;44854;50.838;4.438;2023-07-13T18:23:57;24.80;94.20
59067;DHT22;44854;50.838;4.438;2023-07-13T18:26:23;25.10;93.90
59067;DHT22;44854;50.838;4.438;2023-07-13T18:28:49;25.50;94.00
59067;DHT22;44854;50.838;4.438;2023-07-13T18:31:19;25.70;93.60
59067;DHT22;44854;50.838;4.438;2023-07-13T18:33:46;25.70;93.60
59067;DHT22;44854;50.838;4.438;2023-07-13T18:36:15;25.50;93.70
59067;DHT22;44854;50.838;4.438;2023-07-13T18:38:41;25.30;93.70
59067;DHT22;44854;50.838;4.438;2023-07-13T18:41:09;24.90;94.10
59067;DHT22;44854;50.838;4.438;2023-07-13T18:43:35;24.90;94.50
59067;DHT22;44854;50.838;4.438;2023-07-13T18:46:01;24.60;94.90
59067;DHT22;44854;50.838;4.438;2023-07-13T18:48:29;24.30;95.00
59067;DHT22;44854;50.838;4.438;2023-07-13T18:50:57;24.10;95.30
59067;DHT22;44854;50.838;4.438;2023-07-13T18:53:23;23.90;95.60
59067;DHT22;44854;50.838;4.438;2023-07-13T18:55:49;23.90;95.80
59067;DHT22;44854;50.838;4.438;2023-07-13T18:58:16;24.10;95.70
59067;DHT22;44854;50.838;4.438;2023-07-13T19:00:45;23.90;96.00
59067;DHT22;44854;50.838;4.438;2023-07-13T19:03:15;23.60;96.80
59067;DHT22;44854;50.838;4.438;2023-07-13T19:05:41;23.50;96.90
59067;DHT22;44854;50.838;4.438;2023-07-13T19:08:14;23.60;96.70
59067;DHT22;44854;50.838;4.438;2023-07-13T19:10:41;23.30;97.20
59067;DHT22;44854;50.838;4.438;2023-07-13T19:13:07;23.30;97.30
59067;DHT22;44854;50.838;4.438;2023-07-13T19:15:36;23.30;97.70
59067;DHT22;44854;50.838;4.438;2023-07-13T19:18:09;23.10;97.90
59067;DHT22;44854;50.838;4.438;2023-07-13T19:20:37;23.00;98.00
59067;DHT22;44854;50.838;4.438;2023-07-13T19:23:04;23.10;98.00
59067;DHT22;44854;50.838;4.438;2023-07-13T19:25:32;23.00;98.30
59067;DHT22;44854;50.838;4.438;2023-07-13T19:27:59;23.00;98.50
59067;DHT22;44854;50.838;4.438;2023-07-13T19:30:25;22.90;98.60
59067;DHT22;44854;50.838;4.438;2023-07-13T19:32:51;23.00;98.80
59067;DHT22;44854;50.838;4.438;2023-07-13T19:35:17;22.80;98.90
59067;DHT22;44854;50.838;4.438;2023-07-13T19:37:43;22.80;98.80
59067;DHT22;44854;50.838;4.438;2023-07-13T19:40:18;22.60;99.00
59067;DHT22;44854;50.838;4.438;2023-07-13T19:42:45;22.70;99.00
59067;DHT22;44854;50.838;4.438;2023-07-13T19:45:29;22.70;99.30
59067;DHT22;44854;50.838;4.438;2023-07-13T19:47:54;22.70;99.40
59067;DHT22;44854;50.838;4.438;2023-07-13T19:50:20;22.70;99.60
59067;DHT22;44854;50.838;4.438;2023-07-13T19:52:50;22.70;99.60
59067;DHT22;44854;50.838;4.438;2023-07-13T19:55:17;22.60;99.80
59067;DHT22;44854;50.838;4.438;2023-07-13T19:57:44;22.70;99.80
59067;DHT22;44854;50.838;4.438;2023-07-13T20:00:21;22.70;99.80
59067;DHT22;44854;50.838;4.438;2023-07-13T20:02:50;22.70;99.90